createdAt,value
2023-02-11T00:00:18.789Z,-2.71
2023-02-11T00:02:47.824Z,-2.73
2023-02-11T00:05:14.860Z,-2.75
2023-02-11T00:07:41.415Z,-2.74
2023-02-11T00:10:08.498Z,-2.75
2023-02-11T00:12:39.606Z,-2.75
2023-02-11T00:15:07.816Z,-2.70
2023-02-11T00:17:34.362Z,-2.74
2023-02-11T00:20:00.944Z,-2.74
2023-02-11T00:22:27.853Z,-2.82
2023-02-11T00:24:54.464Z,-2.84
2023-02-11T00:27:21.018Z,-2.83
2023-02-11T00:29:47.588Z,-2.85
2023-02-11T00:32:14.491Z,-2.85
2023-02-11T00:34:41.116Z,-2.86
2023-02-11T00:37:07.780Z,-2.88
2023-02-11T00:39:34.337Z,-2.89
2023-02-11T00:42:00.873Z,-3.01
2023-02-11T00:44:27.430Z,-3.03
2023-02-11T00:46:54.074Z,-2.99
2023-02-11T00:49:20.742Z,-2.98
2023-02-11T00:51:47.378Z,-2.94
2023-02-11T00:54:13.894Z,-2.91
2023-02-11T00:56:40.420Z,-2.90
2023-02-11T00:59:06.960Z,-3.03
2023-02-11T01:01:34.783Z,-3.00
2023-02-11T01:04:01.518Z,-2.99
2023-02-11T01:06:28.131Z,-3.01
2023-02-11T01:08:54.843Z,-3.02
2023-02-11T01:11:22.432Z,-3.00
2023-02-11T01:13:50.177Z,-3.07
2023-02-11T01:16:19.003Z,-3.06
2023-02-11T01:18:46.422Z,-3.05
2023-02-11T01:21:13.215Z,-3.06
2023-02-11T01:23:39.753Z,-3.08
2023-02-11T01:26:06.334Z,-3.09
2023-02-11T01:28:33.466Z,-3.09
2023-02-11T01:31:01.577Z,-3.11
2023-02-11T01:33:28.469Z,-3.12
2023-02-11T01:35:55.417Z,-3.18
2023-02-11T01:38:25.333Z,-3.21
2023-02-11T01:41:12.840Z,-3.24
2023-02-11T01:43:43.328Z,-3.26
2023-02-11T01:46:30.055Z,-3.26
2023-02-11T01:49:19.398Z,-3.28
2023-02-11T01:51:58.208Z,-3.32
2023-02-11T01:54:47.573Z,-3.37
2023-02-11T01:57:25.140Z,-3.38
2023-02-11T01:59:54.643Z,-3.44
2023-02-11T02:02:27.227Z,-3.40
2023-02-11T02:05:27.754Z,-3.47
2023-02-11T02:08:03.305Z,-3.47
2023-02-11T02:10:31.556Z,-3.50
2023-02-11T02:12:58.158Z,-3.53
2023-02-11T02:15:32.479Z,-3.52
2023-02-11T02:18:14.116Z,-3.55
2023-02-11T02:21:19.803Z,-3.51
2023-02-11T02:23:46.273Z,-3.52
2023-02-11T02:26:19.796Z,-3.52
2023-02-11T02:29:11.162Z,-3.62
2023-02-11T02:31:40.765Z,-3.62
2023-02-11T02:34:20.063Z,-3.64
2023-02-11T02:36:59.157Z,-3.68
2023-02-11T02:39:31.559Z,-3.76
2023-02-11T02:41:58.457Z,-3.76
2023-02-11T02:44:25.403Z,-3.79
2023-02-11T02:46:52.060Z,-3.80
2023-02-11T02:49:21.023Z,-3.82
2023-02-11T02:52:03.244Z,-3.76
2023-02-11T02:54:48.451Z,-3.78
2023-02-11T02:57:24.547Z,-3.79
2023-02-11T02:59:53.935Z,-3.82
2023-02-11T03:02:33.331Z,-3.83
2023-02-11T03:05:06.015Z,-3.83
2023-02-11T03:07:44.752Z,-3.85
2023-02-11T03:10:19.487Z,-3.88
2023-02-11T03:12:48.464Z,-3.91
2023-02-11T03:15:18.341Z,-3.97
2023-02-11T03:17:48.206Z,-4.00
2023-02-11T03:20:18.050Z,-3.99
2023-02-11T03:23:00.130Z,-4.07
2023-02-11T03:25:34.835Z,-4.05
2023-02-11T03:28:17.853Z,-4.11
2023-02-11T03:30:55.300Z,-4.09
2023-02-11T03:33:35.735Z,-4.09
2023-02-11T03:36:18.146Z,-3.88
2023-02-11T03:38:49.016Z,-3.68
2023-02-11T03:41:18.086Z,-3.73
2023-02-11T03:43:50.372Z,-3.94
2023-02-11T03:46:21.171Z,-3.99
2023-02-11T03:48:53.753Z,-4.10
2023-02-11T03:51:22.552Z,-4.12
2023-02-11T03:53:53.137Z,-4.20
2023-02-11T03:56:22.141Z,-4.22
2023-02-11T03:58:49.229Z,-4.27
2023-02-11T04:01:16.042Z,-4.25
2023-02-11T04:03:42.601Z,-4.24
2023-02-11T04:06:09.231Z,-4.22
2023-02-11T04:08:35.768Z,-4.31
2023-02-11T04:11:02.318Z,-4.21
2023-02-11T04:13:28.885Z,-4.23
2023-02-11T04:15:55.679Z,-4.20
2023-02-11T04:18:22.267Z,-4.16
2023-02-11T04:20:50.336Z,-4.21
2023-02-11T04:23:16.947Z,-4.24
2023-02-11T04:25:43.459Z,-4.24
2023-02-11T04:28:10.122Z,-4.25
2023-02-11T04:30:36.779Z,-4.21
2023-02-11T04:33:03.522Z,-4.21
2023-02-11T04:35:30.120Z,-4.19
2023-02-11T04:37:56.779Z,-4.11
2023-02-11T04:40:23.320Z,-4.05
2023-02-11T04:42:50.440Z,-4.03
2023-02-11T04:45:16.963Z,-4.04
2023-02-11T04:47:43.544Z,-4.00
2023-02-11T04:50:10.236Z,-3.97
2023-02-11T04:52:36.762Z,-3.99
2023-02-11T04:55:03.355Z,-4.03
2023-02-11T04:57:29.973Z,-4.02
2023-02-11T04:59:56.546Z,-3.94
2023-02-11T05:02:23.095Z,-3.94
2023-02-11T05:04:49.622Z,-3.94
2023-02-11T05:07:16.328Z,-3.82
2023-02-11T05:09:42.852Z,-3.84
2023-02-11T05:12:09.373Z,-3.86
2023-02-11T05:14:35.927Z,-3.80
2023-02-11T05:17:02.530Z,-3.74
2023-02-11T05:19:29.153Z,-3.74
2023-02-11T05:22:02.640Z,-3.73
2023-02-11T05:24:31.752Z,-3.77
2023-02-11T05:26:58.336Z,-3.75
2023-02-11T05:29:24.870Z,-3.76
2023-02-11T05:31:51.380Z,-3.73
2023-02-11T05:34:17.961Z,-3.73
2023-02-11T05:36:44.477Z,-3.69
2023-02-11T05:39:11.223Z,-3.79
2023-02-11T05:41:38.340Z,-3.82
2023-02-11T05:44:04.970Z,-3.93
2023-02-11T05:46:31.553Z,-3.90
2023-02-11T05:48:58.513Z,-3.86
2023-02-11T05:51:25.441Z,-3.82
2023-02-11T05:53:52.065Z,-3.83
2023-02-11T05:56:18.787Z,-3.80
2023-02-11T05:58:45.414Z,-3.79
2023-02-11T06:01:11.917Z,-3.78
2023-02-11T06:03:38.486Z,-3.76
2023-02-11T06:06:05.490Z,-3.72
2023-02-11T06:08:32.086Z,-3.64
2023-02-11T06:10:58.624Z,-3.61
2023-02-11T06:13:25.175Z,-3.61
2023-02-11T06:16:00.297Z,-3.60
2023-02-11T06:18:26.967Z,-3.64
2023-02-11T06:20:53.737Z,-3.70
2023-02-11T06:23:20.881Z,-3.77
2023-02-11T06:25:47.527Z,-3.79
2023-02-11T06:28:14.101Z,-3.83
2023-02-11T06:30:40.774Z,-3.79
2023-02-11T06:33:07.554Z,-3.81
2023-02-11T06:35:35.431Z,-3.77
2023-02-11T06:38:02.232Z,-3.76
2023-02-11T06:40:28.776Z,-3.74
2023-02-11T06:42:55.484Z,-3.71
2023-02-11T06:45:22.073Z,-3.67
2023-02-11T06:47:51.293Z,-3.64
2023-02-11T06:50:17.970Z,-3.56
2023-02-11T06:52:44.619Z,-3.36
2023-02-11T06:55:12.998Z,-3.28
2023-02-11T06:57:39.555Z,-3.27
2023-02-11T07:00:06.661Z,-3.17
2023-02-11T07:02:33.199Z,-3.13
2023-02-11T07:04:59.731Z,-3.09
2023-02-11T07:07:27.751Z,-3.04
2023-02-11T07:09:54.358Z,-2.98
2023-02-11T07:12:20.936Z,-2.98
2023-02-11T07:14:47.518Z,-2.96
2023-02-11T07:17:14.678Z,-2.97
2023-02-11T07:19:41.510Z,-3.01
2023-02-11T07:22:08.007Z,-2.98
2023-02-11T07:24:34.534Z,-3.00
2023-02-11T07:27:01.008Z,-2.91
2023-02-11T07:29:27.642Z,-2.83
2023-02-11T07:31:54.406Z,-2.77
2023-02-11T07:34:21.208Z,-2.73
2023-02-11T07:36:49.078Z,-2.64
2023-02-11T07:39:15.930Z,-2.48
2023-02-11T07:41:43.106Z,-2.53
2023-02-11T07:44:12.376Z,-2.47
2023-02-11T07:46:43.175Z,-2.41
2023-02-11T07:49:09.727Z,-2.38
2023-02-11T07:51:36.345Z,-2.34
2023-02-11T07:54:02.949Z,-2.29
2023-02-11T07:56:30.267Z,-2.29
2023-02-11T07:59:01.060Z,-2.22
2023-02-11T08:01:28.860Z,-2.20
2023-02-11T08:03:57.518Z,-2.14
2023-02-11T08:06:26.325Z,-2.10
2023-02-11T08:08:53.016Z,-1.94
2023-02-11T08:11:25.161Z,-1.85
2023-02-11T08:13:52.674Z,-1.81
2023-02-11T08:16:27.997Z,-1.79
2023-02-11T08:18:57.844Z,-1.69
2023-02-11T08:21:25.217Z,-1.71
2023-02-11T08:23:52.009Z,-1.72
2023-02-11T08:26:21.159Z,-1.63
2023-02-11T08:28:49.548Z,-1.56
2023-02-11T08:31:24.552Z,-1.57
2023-02-11T08:33:51.723Z,-1.50
2023-02-11T08:36:23.810Z,-1.51
2023-02-11T08:38:50.423Z,-1.50
2023-02-11T08:41:17.982Z,-1.45
2023-02-11T08:43:45.496Z,-1.40
2023-02-11T08:46:15.106Z,-1.40
2023-02-11T08:48:42.284Z,-1.32
2023-02-11T08:51:23.304Z,-1.34
2023-02-11T08:53:50.515Z,-1.30
2023-02-11T08:56:18.805Z,-1.22
2023-02-11T08:58:45.626Z,-1.17
2023-02-11T09:01:20.110Z,-1.13
2023-02-11T09:03:48.725Z,-1.05
2023-02-11T09:06:17.427Z,-0.94
2023-02-11T09:08:46.618Z,-0.87
2023-02-11T09:11:13.916Z,-0.78
2023-02-11T09:13:42.417Z,-0.71
2023-02-11T09:16:15.773Z,-0.62
2023-02-11T09:18:42.360Z,-0.54
2023-02-11T09:21:09.428Z,-0.47
2023-02-11T09:23:36.279Z,-0.41
2023-02-11T09:26:09.199Z,-0.35
2023-02-11T09:28:36.488Z,-0.34
2023-02-11T09:31:08.674Z,-0.22
2023-02-11T09:33:36.388Z,-0.22
2023-02-11T09:36:05.465Z,-0.05
2023-02-11T09:38:32.942Z,-0.02
2023-02-11T09:40:59.702Z,0.07
2023-02-11T09:43:46.948Z,0.18
2023-02-11T09:46:15.953Z,0.29
2023-02-11T09:48:45.799Z,0.29
2023-02-11T09:51:55.805Z,0.33
2023-02-11T09:54:36.680Z,0.51
2023-02-11T09:57:03.830Z,0.68
2023-02-11T09:59:30.348Z,0.64
2023-02-11T10:02:02.388Z,0.71
2023-02-11T10:04:53.411Z,0.85
2023-02-11T10:07:43.782Z,0.95
2023-02-11T10:10:19.760Z,1.03
2023-02-11T10:13:06.495Z,1.11
2023-02-11T10:15:52.205Z,1.12
2023-02-11T10:18:27.934Z,1.10
2023-02-11T10:21:08.811Z,1.20
2023-02-11T10:23:39.413Z,1.20
2023-02-11T10:26:13.712Z,1.24
2023-02-11T10:28:43.941Z,1.32
2023-02-11T10:31:18.678Z,1.39
2023-02-11T10:34:05.558Z,1.44
2023-02-11T10:36:38.800Z,1.54
2023-02-11T10:39:20.541Z,1.61
2023-02-11T10:41:57.912Z,1.70
2023-02-11T10:44:31.088Z,1.58
2023-02-11T10:47:01.890Z,1.68
2023-02-11T10:49:39.457Z,1.83
2023-02-11T10:52:17.914Z,1.86
2023-02-11T10:54:57.482Z,1.98
2023-02-11T10:57:46.864Z,1.96
2023-02-11T11:00:42.809Z,1.86
2023-02-11T11:03:19.946Z,1.97
2023-02-11T11:06:01.216Z,2.00
2023-02-11T11:08:50.379Z,2.07
2023-02-11T11:11:21.946Z,2.11
2023-02-11T11:14:01.201Z,2.17
2023-02-11T11:16:35.955Z,2.16
2023-02-11T11:19:08.359Z,2.29
2023-02-11T11:21:40.883Z,2.48
2023-02-11T11:24:17.987Z,2.55
2023-02-11T11:26:56.970Z,2.64
2023-02-11T11:29:27.768Z,2.69
2023-02-11T11:31:57.872Z,2.75
2023-02-11T11:34:32.422Z,2.79
2023-02-11T11:37:01.946Z,2.88
2023-02-11T11:39:33.185Z,3.01
2023-02-11T11:42:00.884Z,3.16
2023-02-11T11:44:29.570Z,3.27
2023-02-11T11:47:23.253Z,3.18
2023-02-11T11:50:18.963Z,3.37
2023-02-11T11:52:54.946Z,3.37
2023-02-11T11:55:42.615Z,3.39
2023-02-11T11:58:18.796Z,3.39
2023-02-11T12:01:14.447Z,3.44
2023-02-11T12:04:02.672Z,3.51
2023-02-11T12:07:03.298Z,3.64
2023-02-11T12:09:52.159Z,3.70
2023-02-11T12:12:21.556Z,3.81
2023-02-11T12:14:53.108Z,3.84
2023-02-11T12:17:52.440Z,3.95
2023-02-11T12:20:26.398Z,3.98
2023-02-11T12:23:04.977Z,4.13
2023-02-11T12:25:44.208Z,4.18
2023-02-11T12:28:34.701Z,4.27
2023-02-11T12:31:24.725Z,4.28
2023-02-11T12:34:18.951Z,4.35
2023-02-11T12:37:02.933Z,4.48
2023-02-11T12:39:47.974Z,4.67
2023-02-11T12:43:00.270Z,4.69
2023-02-11T12:45:42.672Z,4.72
2023-02-11T12:48:15.379Z,4.67
2023-02-11T12:51:20.718Z,4.67
2023-02-11T12:54:17.364Z,4.59
2023-02-11T12:56:51.132Z,4.58
2023-02-11T12:59:34.681Z,4.62
2023-02-11T13:02:09.788Z,4.62
2023-02-11T13:04:41.682Z,4.59
2023-02-11T13:07:31.648Z,4.59
2023-02-11T13:10:21.820Z,4.62
2023-02-11T13:13:10.116Z,4.66
2023-02-11T13:15:37.650Z,4.64
2023-02-11T13:18:14.036Z,4.66
2023-02-11T13:20:52.867Z,4.61
2023-02-11T13:23:26.036Z,4.60
2023-02-11T13:26:10.032Z,4.62
2023-02-11T13:29:03.746Z,4.56
2023-02-11T13:31:30.815Z,4.60
2023-02-11T13:33:57.464Z,4.62
2023-02-11T13:36:30.217Z,4.55
2023-02-11T13:38:58.609Z,4.59
2023-02-11T13:41:29.465Z,4.64
2023-02-11T13:44:00.216Z,4.73
2023-02-11T13:46:30.207Z,4.69
2023-02-11T13:48:57.857Z,4.74
2023-02-11T13:51:35.147Z,4.73
2023-02-11T13:54:02.796Z,4.74
2023-02-11T13:56:33.651Z,4.67
2023-02-11T13:59:02.854Z,4.60
2023-02-11T14:02:06.528Z,4.62
2023-02-11T14:04:52.213Z,4.59
2023-02-11T14:07:40.403Z,4.65
2023-02-11T14:10:41.736Z,4.56
2023-02-11T14:13:36.748Z,4.58
2023-02-11T14:16:08.051Z,4.61
2023-02-11T14:18:51.970Z,4.67
2023-02-11T14:21:27.945Z,4.60
2023-02-11T14:24:14.542Z,4.44
2023-02-11T14:27:24.052Z,4.43
2023-02-11T14:29:51.146Z,4.56
2023-02-11T14:32:23.406Z,4.54
2023-02-11T14:35:15.441Z,4.53
2023-02-11T14:38:07.492Z,4.57
2023-02-11T14:40:51.373Z,4.54
2023-02-11T14:43:26.775Z,4.60
2023-02-11T14:45:56.756Z,4.50
2023-02-11T14:48:35.069Z,4.37
2023-02-11T14:51:13.672Z,4.36
2023-02-11T14:53:45.956Z,4.36
2023-02-11T14:56:34.840Z,4.39
2023-02-11T14:59:02.790Z,4.42
2023-02-11T15:01:33.981Z,4.37
2023-02-11T15:04:03.020Z,4.33
2023-02-11T15:06:34.011Z,4.34
2023-02-11T15:09:02.859Z,4.29
2023-02-11T15:11:34.596Z,4.27
2023-02-11T15:14:11.161Z,4.23
2023-02-11T15:16:46.263Z,4.17
2023-02-11T15:19:29.032Z,4.17
2023-02-11T15:21:56.992Z,4.16
2023-02-11T15:24:25.714Z,4.13
2023-02-11T15:27:15.631Z,4.11
2023-02-11T15:30:00.114Z,4.10
2023-02-11T15:32:45.966Z,4.10
2023-02-11T15:35:30.612Z,4.09
2023-02-11T15:37:58.988Z,4.07
2023-02-11T15:40:28.984Z,4.04
2023-02-11T15:42:59.066Z,4.07
2023-02-11T15:45:38.245Z,4.06
2023-02-11T15:48:20.514Z,4.07
2023-02-11T15:50:59.093Z,4.02
2023-02-11T15:53:28.963Z,4.07
2023-02-11T15:56:30.726Z,4.16
2023-02-11T15:59:02.786Z,4.13
2023-02-11T16:01:47.871Z,4.15
2023-02-11T16:04:29.686Z,4.17
2023-02-11T16:06:56.842Z,4.12
2023-02-11T16:09:36.408Z,4.09
2023-02-11T16:12:22.460Z,4.08
2023-02-11T16:14:49.079Z,4.12
2023-02-11T16:17:18.546Z,4.11
2023-02-11T16:19:47.882Z,4.10
2023-02-11T16:22:25.289Z,4.09
2023-02-11T16:24:54.125Z,4.06
2023-02-11T16:27:20.618Z,4.06
2023-02-11T16:29:49.148Z,4.05
2023-02-11T16:32:19.299Z,4.03
2023-02-11T16:34:46.351Z,4.02
2023-02-11T16:37:13.007Z,4.00
2023-02-11T16:39:39.623Z,4.00
2023-02-11T16:42:08.976Z,3.99
2023-02-11T16:44:35.729Z,3.97
2023-02-11T16:47:04.325Z,3.99
2023-02-11T16:49:34.986Z,3.97
2023-02-11T16:52:06.235Z,3.97
2023-02-11T16:54:32.869Z,3.91
2023-02-11T16:56:59.711Z,3.97
2023-02-11T16:59:26.259Z,3.95
2023-02-11T17:01:54.834Z,3.96
2023-02-11T17:04:25.631Z,3.92
2023-02-11T17:06:52.372Z,3.92
2023-02-11T17:09:21.727Z,3.89
2023-02-11T17:11:48.856Z,3.92
2023-02-11T17:14:15.606Z,3.87
2023-02-11T17:16:43.409Z,3.91
2023-02-11T17:19:13.347Z,3.93
2023-02-11T17:21:43.855Z,3.91
2023-02-11T17:24:11.378Z,3.88
2023-02-11T17:26:39.068Z,3.88
2023-02-11T17:29:07.567Z,3.87
2023-02-11T17:31:35.330Z,3.86
2023-02-11T17:34:02.602Z,3.90
2023-02-11T17:36:31.373Z,3.92
2023-02-11T17:38:58.896Z,3.90
2023-02-11T17:41:26.109Z,3.89
2023-02-11T17:43:53.227Z,3.89
2023-02-11T17:46:20.058Z,3.89
2023-02-11T17:48:46.937Z,3.88
2023-02-11T17:51:33.895Z,3.83
2023-02-11T17:54:05.016Z,3.82
2023-02-11T17:56:33.713Z,3.82
2023-02-11T17:59:02.509Z,3.83
2023-02-11T18:01:30.989Z,3.84
2023-02-11T18:03:57.892Z,3.85
2023-02-11T18:06:25.152Z,3.87
2023-02-11T18:08:52.268Z,3.84
2023-02-11T18:11:19.015Z,3.86
2023-02-11T18:13:45.647Z,3.84
2023-02-11T18:16:15.750Z,3.85
2023-02-11T18:18:46.687Z,3.78
2023-02-11T18:21:16.257Z,3.84
2023-02-11T18:23:43.070Z,3.84
2023-02-11T18:26:14.431Z,3.87
2023-02-11T18:28:43.282Z,3.86
2023-02-11T18:31:12.678Z,3.84
2023-02-11T18:33:40.901Z,3.83
2023-02-11T18:36:13.261Z,3.84
2023-02-11T18:38:40.471Z,3.83
2023-02-11T18:41:09.906Z,3.85
2023-02-11T18:43:40.230Z,3.85
2023-02-11T18:46:13.077Z,3.85
2023-02-11T18:48:40.386Z,3.77
2023-02-11T18:51:12.715Z,3.85
2023-02-11T18:53:39.771Z,3.84
2023-02-11T18:56:12.265Z,3.87
2023-02-11T18:58:39.461Z,3.86
2023-02-11T19:01:22.302Z,3.84
2023-02-11T19:03:49.095Z,3.85
2023-02-11T19:06:23.615Z,3.84
2023-02-11T19:08:50.566Z,3.80
2023-02-11T19:11:19.871Z,3.83
2023-02-11T19:13:48.136Z,3.82
2023-02-11T19:16:16.854Z,3.83
2023-02-11T19:18:43.552Z,3.88
2023-02-11T19:21:11.283Z,3.89
2023-02-11T19:23:38.402Z,3.89
2023-02-11T19:26:06.546Z,3.89
2023-02-11T19:28:34.248Z,3.95
2023-02-11T19:31:08.896Z,3.99
2023-02-11T19:33:36.164Z,4.00
2023-02-11T19:36:08.359Z,4.05
2023-02-11T19:38:36.212Z,4.01
2023-02-11T19:41:02.883Z,3.99
2023-02-11T19:43:29.533Z,4.06
2023-02-11T19:45:57.359Z,4.06
2023-02-11T19:48:25.208Z,4.17
2023-02-11T19:50:51.801Z,4.26
2023-02-11T19:53:18.490Z,4.31
2023-02-11T19:55:45.048Z,4.31
2023-02-11T19:58:11.776Z,4.32
2023-02-11T20:00:39.296Z,4.31
2023-02-11T20:03:06.100Z,4.31
2023-02-11T20:05:32.928Z,4.32
2023-02-11T20:07:59.479Z,4.35
2023-02-11T20:10:26.708Z,4.40
2023-02-11T20:12:53.245Z,4.43
2023-02-11T20:15:19.733Z,4.50
2023-02-11T20:17:46.238Z,4.57
2023-02-11T20:20:13.005Z,4.62
2023-02-11T20:22:39.592Z,4.65
2023-02-11T20:25:06.773Z,4.66
2023-02-11T20:27:33.448Z,4.69
2023-02-11T20:30:00.061Z,4.72
2023-02-11T20:32:26.652Z,4.72
2023-02-11T20:34:53.370Z,4.70
2023-02-11T20:37:19.979Z,4.72
2023-02-11T20:39:46.504Z,4.72
2023-02-11T20:42:14.373Z,4.69
2023-02-11T20:44:41.295Z,4.66
2023-02-11T20:47:07.836Z,4.68
2023-02-11T20:49:34.421Z,4.72
2023-02-11T20:52:01.001Z,4.74
2023-02-11T20:54:27.832Z,4.66
2023-02-11T20:56:55.421Z,4.69
2023-02-11T20:59:22.782Z,4.74
2023-02-11T21:01:53.484Z,4.74
2023-02-11T21:04:29.530Z,4.78
2023-02-11T21:06:59.687Z,4.80
2023-02-11T21:09:28.969Z,4.79
2023-02-11T21:11:55.928Z,4.85
2023-02-11T21:14:24.131Z,4.88
2023-02-11T21:16:51.218Z,4.82
2023-02-11T21:19:18.516Z,4.86
2023-02-11T21:21:45.590Z,4.92
2023-02-11T21:24:12.774Z,4.86
2023-02-11T21:26:39.403Z,4.86
2023-02-11T21:29:07.318Z,4.89
2023-02-11T21:31:34.724Z,4.86
2023-02-11T21:34:01.727Z,4.90
2023-02-11T21:36:29.341Z,4.89
2023-02-11T21:38:56.321Z,4.92
2023-02-11T21:41:23.186Z,4.89
2023-02-11T21:43:51.046Z,4.89
2023-02-11T21:46:18.952Z,4.94
2023-02-11T21:48:45.858Z,4.97
2023-02-11T21:51:18.426Z,4.95
2023-02-11T21:53:45.444Z,4.94
2023-02-11T21:56:17.406Z,4.93
2023-02-11T21:58:45.330Z,4.97
2023-02-11T22:01:14.309Z,4.98
2023-02-11T22:03:41.262Z,4.99
2023-02-11T22:06:13.006Z,5.02
2023-02-11T22:08:40.234Z,5.06
2023-02-11T22:11:09.481Z,5.05
2023-02-11T22:13:37.254Z,5.01
2023-02-11T22:16:07.399Z,5.08
2023-02-11T22:18:34.172Z,5.17
2023-02-11T22:21:06.245Z,5.10
2023-02-11T22:23:33.613Z,5.12
2023-02-11T22:26:07.590Z,5.10
2023-02-11T22:28:35.630Z,5.09
2023-02-11T22:31:02.500Z,5.06
2023-02-11T22:33:29.179Z,5.06
2023-02-11T22:36:07.237Z,5.08
2023-02-11T22:38:34.685Z,5.07
2023-02-11T22:41:05.930Z,5.08
2023-02-11T22:43:32.563Z,5.10
2023-02-11T22:46:03.085Z,5.12
2023-02-11T22:48:29.821Z,5.16
2023-02-11T22:50:56.629Z,5.20
2023-02-11T22:53:25.543Z,5.17
2023-02-11T22:55:52.426Z,5.16
2023-02-11T22:58:19.102Z,5.10
2023-02-11T23:00:46.198Z,5.08
2023-02-11T23:03:13.565Z,5.12
2023-02-11T23:05:42.041Z,5.13
2023-02-11T23:08:10.783Z,5.18
2023-02-11T23:10:39.290Z,5.09
2023-02-11T23:13:07.422Z,5.14
2023-02-11T23:15:34.455Z,5.16
2023-02-11T23:18:01.091Z,5.15
2023-02-11T23:20:27.710Z,5.13
2023-02-11T23:22:54.388Z,5.17
2023-02-11T23:25:21.065Z,5.16
2023-02-11T23:27:47.828Z,5.09
2023-02-11T23:30:14.736Z,5.13
2023-02-11T23:32:41.246Z,5.13
2023-02-11T23:35:08.082Z,5.07
2023-02-11T23:37:34.762Z,5.03
2023-02-11T23:40:01.260Z,4.96
2023-02-11T23:42:29.205Z,4.93
2023-02-11T23:44:55.900Z,5.02
2023-02-11T23:47:22.540Z,4.90
2023-02-11T23:49:49.095Z,4.91
2023-02-11T23:52:15.637Z,4.88
2023-02-11T23:54:43.444Z,4.96
2023-02-11T23:57:10.109Z,4.90
2023-02-11T23:59:36.672Z,4.80
